메인 페이지
METAR-TAF:

METAR-TAF

공항 :

훌리아카, 페루

위도: 15-29S, 경도: 070-09W, 고도: 3826m

현재 날씨관측

예보는 2 시간 19분 전, 23:00시(UTC)에 발표되었습니다.
6kt
온도 13°C
습도 58%
기압 1035 hPa
시정 10km 이상
고도 2000ft 상공 구름 보통
고도 8000ft 상공 구름 많음
시계 내 소나기

METAR: SPJL 252300Z 10006KT 9999 VCSH SCT020 BKN080 13/05 Q1035 RMK VCSH QUAD N PP000

시각: 20:19 (01:19 UTC)

예보

예보는 8 시간 19분 전, 17:00시(UTC)에 발표되었습니다.
예보 대상 시간: 25일 18시부터 26일 18시까지 (UTC)
동남동10kt
시정 10km 이상
고도 2000ft 상공 구름 보통
일시적
25일 18시부터 25일 21시까지 (UTC)
고도 2000ft 상공 구름 보통, 타워링 적운.
전환 중
25일 22시부터 25일 24시까지 (UTC)
남남서5kt

TAF: SPJL 251700Z 2518/2618 12010KT 9999 SCT020 TX16/2519Z TN04/2611Z TEMPO 2518/2521 SCT020TCU BECMG 2522/2524 20005KT

4,000개 이상의 공항 관측 자료 및 예보 (METAR 및 TAF 보고).

지도상에서 검색 가능한 기상관측소가 노란 점과 빨간 점으로 표시되어 있습니다.

기상관측소 명을 보려면 표시 위로 마우스를 이동하세요.

날씨 관측과 예보를 보려면 클릭하세요.

지도 변경 : 확대하려면 엑스 표시가 있는 녹색 버튼, 축소하려면 빼기 표시가 있는 녹색 버튼, 다음 페이지의 지도를 보려면 녹색 화살표를 클릭하세요.


METAR-TAF: